Time;durP1;ratioP1;P1;durP2;ratioP2;P2;SDS_P1;SDS_P2;PMS_P1;PMS_P2;Temp;Humidity;BMP_temperature;BMP_pressure;BME280_temperature;BME280_humidity;BME280_pressure;Samples;Min_cycle;Max_cycle;Signal;HPM_P1;HPM_P2
2023/07/02 00:01:25;;;;;;;29.80;18.20;;;;;;;19.36;84.27;99433.77;106967;1254;102112;-81
2023/07/02 00:04:13;;;;;;;27.20;18.80;;;;;;;19.36;84.25;99434.58;107068;1254;99147;-80
2023/07/02 00:06:59;;;;;;;27.80;19.90;;;;;;;19.33;84.24;99433.36;107119;1254;97992;-81
2023/07/02 00:09:45;;;;;;;30.70;18.30;;;;;;;19.32;84.23;99427.98;107216;1253;98732;-81
2023/07/02 00:12:30;;;;;;;27.40;19.10;;;;;;;19.27;84.13;99423.36;107078;1253;98508;-81
2023/07/02 00:15:16;;;;;;;25.80;18.40;;;;;;;19.23;83.98;99420.16;107043;1253;101395;-81
2023/07/02 00:18:01;;;;;;;26.00;19.10;;;;;;;19.18;84.14;99421.89;106990;1257;99029;-81
2023/07/02 00:20:47;;;;;;;27.30;19.50;;;;;;;19.14;84.07;99423.30;106905;1254;99549;-81
2023/07/02 00:23:33;;;;;;;23.20;18.60;;;;;;;19.10;84.14;99429.98;107115;1254;96550;-81
2023/07/02 00:26:18;;;;;;;26.10;19.50;;;;;;;19.07;84.39;99428.66;107143;1254;99372;-80
2023/07/02 00:29:06;;;;;;;24.20;18.40;;;;;;;19.02;84.35;99425.95;107069;1254;101412;-81
2023/07/02 00:31:51;;;;;;;24.70;18.30;;;;;;;18.98;84.18;99427.52;107103;1254;100404;-80
2023/07/02 00:34:37;;;;;;;28.60;19.20;;;;;;;18.93;83.96;99428.17;107030;1254;97991;-81
2023/07/02 00:37:22;;;;;;;27.90;18.00;;;;;;;18.90;84.18;99426.58;107186;1254;97852;-80
2023/07/02 00:40:08;;;;;;;30.90;19.50;;;;;;;18.86;84.23;99425.83;107206;1254;97682;-81
2023/07/02 00:42:54;;;;;;;28.30;19.00;;;;;;;18.82;84.18;99422.02;107113;1254;101313;-82
2023/07/02 00:45:39;;;;;;;27.10;18.60;;;;;;;18.79;84.41;99420.43;107101;1254;99233;-81
2023/07/02 00:48:25;;;;;;;25.60;18.30;;;;;;;18.75;84.26;99421.12;107094;1254;98831;-82
2023/07/02 00:51:14;;;;;;;27.50;18.80;;;;;;;18.69;84.47;99424.42;107082;1254;98016;-80
2023/07/02 00:54:00;;;;;;;25.30;19.10;;;;;;;18.63;84.65;99420.84;106947;1254;97971;-81
2023/07/02 00:56:46;;;;;;;25.80;18.30;;;;;;;18.61;84.68;99417.73;107098;1253;101376;-81
2023/07/02 00:59:35;;;;;;;29.60;19.60;;;;;;;18.60;85.01;99419.09;107162;1257;99073;-80
2023/07/02 01:02:21;;;;;;;32.10;19.70;;;;;;;18.57;85.31;99417.57;107047;1254;99288;-81
2023/07/02 01:05:06;;;;;;;29.50;20.20;;;;;;;18.57;85.50;99411.49;107042;1254;97776;-80
2023/07/02 01:07:52;;;;;;;29.30;20.40;;;;;;;18.57;85.92;99410.35;107232;1257;97945;-82
2023/07/02 01:10:37;;;;;;;29.00;20.90;;;;;;;18.57;86.49;99412.14;107085;1259;101276;-80
2023/07/02 01:13:24;;;;;;;32.80;20.80;;;;;;;18.59;86.75;99411.33;107149;1254;99040;-81
2023/07/02 01:16:10;;;;;;;26.50;19.80;;;;;;;18.60;87.07;99410.67;106919;1254;98487;-81
2023/07/02 01:18:57;;;;;;;30.50;21.50;;;;;;;18.59;87.21;99406.98;107094;1254;97800;-80
2023/07/02 01:21:42;;;;;;;29.50;21.00;;;;;;;18.60;87.26;99405.42;107259;1254;97942;-81
2023/07/02 01:24:28;;;;;;;31.30;21.00;;;;;;;18.60;87.72;99405.27;107036;1257;101324;-81
2023/07/02 01:27:15;;;;;;;29.00;20.80;;;;;;;18.60;87.69;99399.94;108313;1253;100174;-81
2023/07/02 01:30:00;;;;;;;31.20;21.90;;;;;;;18.60;87.79;99396.58;107084;1253;97908;-81
2023/07/02 01:32:46;;;;;;;29.60;20.90;;;;;;;18.59;87.93;99394.45;107043;1254;97988;-81
2023/07/02 01:35:32;;;;;;;31.10;21.90;;;;;;;18.59;88.13;99394.78;107157;1254;98351;-82
2023/07/02 01:38:17;;;;;;;30.70;20.80;;;;;;;18.59;88.17;99391.05;107124;1254;101325;-80
2023/07/02 01:41:03;;;;;;;29.60;21.30;;;;;;;18.57;88.39;99387.14;107147;1254;99967;-82
2023/07/02 01:43:49;;;;;;;29.90;20.80;;;;;;;18.58;88.57;99383.77;107258;1257;99432;-80
2023/07/02 01:46:34;;;;;;;30.60;21.00;;;;;;;18.59;88.56;99383.40;107040;1253;98125;-80
2023/07/02 01:49:20;;;;;;;27.20;20.90;;;;;;;18.61;88.57;99386.27;107184;1253;98411;-80
2023/07/02 01:52:06;;;;;;;29.60;20.50;;;;;;;18.60;88.52;99382.41;107048;1253;102639;-81
2023/07/02 01:54:52;;;;;;;29.60;21.10;;;;;;;18.61;88.63;99378.30;107114;1253;99075;-80
2023/07/02 01:57:37;;;;;;;33.60;21.40;;;;;;;18.62;88.72;99375.96;107110;1254;106314;-80
2023/07/02 02:00:24;;;;;;;32.90;21.60;;;;;;;18.63;88.82;99376.35;107102;1254;97973;-81
2023/07/02 02:03:09;;;;;;;28.30;19.80;;;;;;;18.65;88.83;99373.80;107087;1254;97794;-81
2023/07/02 02:05:55;;;;;;;33.40;22.10;;;;;;;18.65;88.58;99373.59;107246;1258;101329;-80
2023/07/02 02:08:40;;;;;;;26.30;20.10;;;;;;;18.64;88.47;99378.73;107138;1254;99077;-81
2023/07/02 02:11:26;;;;;;;29.00;19.20;;;;;;;18.63;88.28;99377.33;107007;1253;97988;-81
2023/07/02 02:14:12;;;;;;;30.00;19.40;;;;;;;18.62;88.07;99377.64;107145;1254;98008;-82
2023/07/02 02:16:58;;;;;;;27.90;19.50;;;;;;;18.61;88.42;99376.45;107374;1254;96189;-81
2023/07/02 02:19:44;;;;;;;28.30;19.90;;;;;;;18.59;88.29;99374.98;107164;1257;101323;-81
2023/07/02 02:22:30;;;;;;;26.10;19.90;;;;;;;18.57;88.30;99371.67;107221;1254;100307;-81
2023/07/02 02:25:15;;;;;;;29.00;20.10;;;;;;;18.56;88.31;99372.44;107145;1257;99228;-82
2023/07/02 02:28:01;;;;;;;28.40;19.80;;;;;;;18.54;88.55;99365.70;107083;1253;97945;-83
2023/07/02 02:30:46;;;;;;;29.10;20.90;;;;;;;18.54;88.68;99365.42;107038;1254;98417;-82
2023/07/02 02:33:33;;;;;;;33.70;20.90;;;;;;;18.54;88.87;99363.75;107023;1253;102525;-81
2023/07/02 02:36:19;;;;;;;32.60;21.40;;;;;;;18.55;89.13;99361.63;107000;1254;100023;-82
2023/07/02 02:39:05;;;;;;;29.90;20.00;;;;;;;18.56;89.21;99362.18;106951;1254;97964;-83
2023/07/02 02:41:51;;;;;;;28.30;20.20;;;;;;;18.56;89.39;99363.21;106938;1254;97969;-81
2023/07/02 02:44:38;;;;;;;31.20;20.90;;;;;;;18.55;89.47;99360.98;106762;1257;98063;-82
2023/07/02 02:47:24;;;;;;;32.30;20.80;;;;;;;18.54;89.53;99358.91;106891;1254;102154;-80
2023/07/02 02:50:13;;;;;;;29.90;19.70;;;;;;;18.54;89.61;99361.19;107013;1254;99083;-82
2023/07/02 02:52:59;;;;;;;26.40;19.00;;;;;;;18.53;89.67;99360.70;107051;1257;99052;-82
2023/07/02 02:55:44;;;;;;;29.50;19.50;;;;;;;18.53;89.65;99354.41;107055;1254;97852;-81
2023/07/02 02:58:30;;;;;;;25.10;18.20;;;;;;;18.53;89.73;99350.45;107006;1257;97917;-81
2023/07/02 03:01:15;;;;;;;28.20;18.30;;;;;;;18.53;90.03;99351.38;106895;1259;102588;-82
2023/07/02 03:04:01;;;;;;;28.20;19.00;;;;;;;18.54;89.80;99349.96;106912;1254;99097;-81
2023/07/02 03:06:46;;;;;;;29.30;18.90;;;;;;;18.56;90.06;99351.34;106881;1253;99092;-81
2023/07/02 03:09:32;;;;;;;25.80;16.90;;;;;;;18.57;90.08;99354.48;107120;1255;97953;-81
2023/07/02 03:12:18;;;;;;;27.50;17.80;;;;;;;18.58;90.04;99352.31;106980;1257;97957;-81
2023/07/02 03:15:03;;;;;;;30.10;18.10;;;;;;;18.59;90.05;99355.08;106906;1259;102058;-82
2023/07/02 03:17:49;;;;;;;24.30;17.70;;;;;;;18.58;90.10;99353.52;106906;1254;99087;-82
2023/07/02 03:20:34;;;;;;;23.70;17.40;;;;;;;18.59;90.10;99351.66;106870;1257;98603;-81
2023/07/02 03:23:20;;;;;;;27.90;19.40;;;;;;;18.58;90.16;99352.42;106944;1257;97867;-82
2023/07/02 03:26:06;;;;;;;25.30;18.10;;;;;;;18.58;89.89;99354.42;106939;1257;98375;-82
2023/07/02 03:28:51;;;;;;;24.90;16.70;;;;;;;18.56;89.89;99353.51;106956;1257;102675;-82
2023/07/02 03:31:38;;;;;;;22.60;17.90;;;;;;;18.56;90.02;99353.89;106802;1255;99063;-82
2023/07/02 03:34:23;;;;;;;22.00;17.80;;;;;;;18.56;90.22;99359.09;107053;1257;99294;-80
2023/07/02 03:37:09;;;;;;;23.90;17.80;;;;;;;18.55;90.29;99360.49;107168;1254;96712;-82
2023/07/02 03:39:54;;;;;;;24.10;17.30;;;;;;;18.55;90.47;99361.08;107185;1257;98574;-81
2023/07/02 03:42:40;;;;;;;26.10;16.70;;;;;;;18.55;90.38;99361.09;107068;1254;102681;-81
2023/07/02 03:45:25;;;;;;;26.70;17.50;;;;;;;18.55;90.56;99360.73;106967;1252;98859;-82
2023/07/02 03:48:11;;;;;;;25.40;16.50;;;;;;;18.55;90.52;99360.66;106923;1258;98923;-82
2023/07/02 03:50:57;;;;;;;20.50;15.90;;;;;;;18.56;90.61;99364.79;107103;1258;96445;-81
2023/07/02 03:53:42;;;;;;;22.20;16.30;;;;;;;18.57;90.46;99368.27;106907;1257;95922;-82
2023/07/02 03:56:27;;;;;;;22.10;15.60;;;;;;;18.59;90.66;99368.80;106908;1254;102632;-82
2023/07/02 03:59:13;;;;;;;21.60;16.90;;;;;;;18.60;90.66;99365.83;107052;1254;99076;-82
2023/07/02 04:01:58;;;;;;;23.80;16.00;;;;;;;18.62;90.57;99362.67;107055;1254;98830;-82
2023/07/02 04:04:44;;;;;;;22.30;15.90;;;;;;;18.65;90.39;99364.96;107002;1257;97963;-82
2023/07/02 04:07:30;;;;;;;18.50;14.40;;;;;;;18.67;90.24;99365.73;106952;1257;97970;-81
2023/07/02 04:10:15;;;;;;;21.10;15.60;;;;;;;18.67;90.35;99363.88;106977;1257;101271;-83
2023/07/02 04:13:01;;;;;;;19.10;14.90;;;;;;;18.66;89.94;99361.98;107020;1257;101426;-83
2023/07/02 04:15:47;;;;;;;18.90;13.60;;;;;;;18.65;89.80;99360.52;107139;1259;97801;-83
2023/07/02 04:18:33;;;;;;;23.80;13.70;;;;;;;18.66;89.79;99355.86;106815;1257;97857;-82
2023/07/02 04:21:19;;;;;;;22.20;14.50;;;;;;;18.67;89.72;99353.40;106972;1254;97889;-83
2023/07/02 04:24:04;;;;;;;21.50;13.80;;;;;;;18.71;89.62;99351.08;106888;1254;102121;-82
2023/07/02 04:26:50;;;;;;;17.40;13.00;;;;;;;18.74;89.57;99348.33;107002;1254;99080;-82
2023/07/02 04:29:35;;;;;;;19.00;13.00;;;;;;;18.78;89.20;99351.69;106868;1254;98279;-82
2023/07/02 04:32:21;;;;;;;17.30;12.60;;;;;;;18.80;88.91;99352.55;106936;1259;97720;-81
2023/07/02 04:35:09;;;;;;;18.10;12.50;;;;;;;18.81;88.82;99352.12;106941;1254;98713;-81
2023/07/02 04:37:55;;;;;;;17.20;12.30;;;;;;;18.82;88.31;99359.02;106846;1254;102601;-81
2023/07/02 04:40:44;;;;;;;16.10;11.20;;;;;;;18.85;88.18;99362.60;107132;1257;99775;-81
2023/07/02 04:43:33;;;;;;;19.90;11.90;;;;;;;18.87;88.01;99359.92;106947;1254;99089;-81
2023/07/02 04:46:19;;;;;;;14.80;11.10;;;;;;;18.92;87.93;99364.52;106943;1257;98120;-81
2023/07/02 04:49:05;;;;;;;17.50;10.90;;;;;;;18.94;87.69;99365.38;106898;1254;98025;-81
2023/07/02 04:51:50;;;;;;;13.70;11.00;;;;;;;18.96;87.46;99359.56;107094;1259;101338;-81
2023/07/02 04:54:36;;;;;;;15.60;11.50;;;;;;;19.00;87.45;99355.94;107076;1258;99940;-82
2023/07/02 04:57:21;;;;;;;19.00;11.10;;;;;;;19.04;87.27;99358.76;106854;1254;97859;-81
2023/07/02 05:00:08;;;;;;;13.80;10.20;;;;;;;19.08;87.19;99356.74;106973;1254;97959;-81
2023/07/02 05:02:54;;;;;;;13.70;10.00;;;;;;;19.13;86.99;99357.71;107080;1256;97928;-80
2023/07/02 05:05:40;;;;;;;14.60;9.90;;;;;;;19.16;86.87;99356.84;107084;1254;101932;-81
2023/07/02 05:08:25;;;;;;;16.60;10.50;;;;;;;19.19;86.41;99355.65;106948;1259;99818;-82
2023/07/02 05:11:10;;;;;;;16.00;11.30;;;;;;;19.21;86.06;99356.02;107149;1254;97708;-81
2023/07/02 05:13:56;;;;;;;14.10;10.30;;;;;;;19.22;85.78;99362.60;106944;1254;97931;-81
2023/07/02 05:16:41;;;;;;;16.60;9.70;;;;;;;19.26;85.62;99362.77;107036;1259;97990;-81
2023/07/02 05:19:26;;;;;;;13.90;9.40;;;;;;;19.30;85.68;99362.65;107103;1254;101380;-81
2023/07/02 05:22:12;;;;;;;14.40;10.20;;;;;;;19.34;85.33;99368.58;107160;1254;99065;-81
2023/07/02 05:24:57;;;;;;;16.70;10.50;;;;;;;19.37;84.91;99372.54;106854;1259;97968;-81
2023/07/02 05:27:43;;;;;;;12.80;10.00;;;;;;;19.40;84.93;99375.48;106992;1254;97866;-81
2023/07/02 05:30:29;;;;;;;12.50;8.90;;;;;;;19.44;84.75;99377.81;106974;1254;98005;-81
2023/07/02 05:33:14;;;;;;;12.40;9.30;;;;;;;19.49;84.66;99378.04;106925;1260;102589;-82
2023/07/02 05:36:00;;;;;;;15.70;10.30;;;;;;;19.55;84.72;99377.86;106974;1258;99073;-81
2023/07/02 05:38:45;;;;;;;19.20;9.70;;;;;;;19.61;84.55;99381.48;107005;1254;98293;-81
2023/07/02 05:41:31;;;;;;;12.60;9.60;;;;;;;19.63;84.18;99385.71;106930;1259;97960;-81
2023/07/02 05:44:16;;;;;;;11.10;9.10;;;;;;;19.65;83.78;99386.58;106981;1254;98534;-81
2023/07/02 05:47:01;;;;;;;13.40;9.10;;;;;;;19.66;83.64;99386.58;106916;1254;101308;-82
2023/07/02 05:49:46;;;;;;;12.10;8.90;;;;;;;19.70;83.43;99387.55;106883;1254;99065;-82
2023/07/02 05:52:32;;;;;;;16.40;9.50;;;;;;;19.71;83.15;99392.38;107102;1254;98944;-81
2023/07/02 05:55:17;;;;;;;12.70;9.00;;;;;;;19.74;83.00;99390.42;107054;1257;97976;-82
2023/07/02 05:58:03;;;;;;;16.30;9.50;;;;;;;19.80;83.26;99386.81;106952;1254;97008;-82
2023/07/02 06:00:49;;;;;;;16.10;9.20;;;;;;;19.88;82.97;99392.06;106918;1254;102101;-81
2023/07/02 06:03:34;;;;;;;14.80;8.90;;;;;;;19.96;82.74;99391.23;107114;1254;99193;-83
2023/07/02 06:06:22;;;;;;;17.20;9.40;;;;;;;20.03;82.14;99391.63;107214;1254;97695;-82
2023/07/02 06:09:07;;;;;;;12.40;8.80;;;;;;;20.10;82.08;99391.39;107250;1254;97936;-82
2023/07/02 06:11:53;;;;;;;14.20;8.70;;;;;;;20.19;82.21;99397.73;106380;1254;98407;-84
2023/07/02 06:14:39;;;;;;;12.70;8.70;;;;;;;20.28;82.33;99404.13;106358;1254;102928;-85
2023/07/02 06:17:26;;;;;;;15.70;8.40;;;;;;;20.33;81.67;99405.89;106393;1258;100497;-86
2023/07/02 06:20:12;;;;;;;8.70;7.60;;;;;;;20.41;81.82;99407.33;106511;1254;97731;-87
2023/07/02 06:22:57;;;;;;;11.20;8.40;;;;;;;20.51;81.85;99404.63;106460;1257;97931;-84
2023/07/02 06:25:43;;;;;;;10.80;8.50;;;;;;;20.61;81.38;99404.19;106410;1259;98385;-87
2023/07/02 06:28:30;;;;;;;12.90;7.90;;;;;;;20.67;80.94;99407.19;106298;1254;101437;-83
2023/07/02 06:31:16;;;;;;;11.10;7.40;;;;;;;20.71;81.04;99409.58;106460;1254;99139;-85
2023/07/02 06:34:01;;;;;;;12.80;8.00;;;;;;;20.70;80.64;99415.34;106675;1254;99139;-83
2023/07/02 06:36:48;;;;;;;9.30;6.90;;;;;;;20.69;80.44;99420.52;106533;1254;97948;-83
2023/07/02 06:39:34;;;;;;;14.00;6.90;;;;;;;20.65;80.43;99422.01;106412;1254;98417;-82
2023/07/02 06:42:19;;;;;;;12.00;7.80;;;;;;;20.60;80.81;99427.27;106379;1254;102409;-82
2023/07/02 06:45:06;;;;;;;14.80;7.30;;;;;;;20.47;81.01;99431.46;106453;1259;100301;-82
2023/07/02 06:47:51;;;;;;;19.50;8.00;;;;;;;20.34;82.12;99430.38;106546;1254;99356;-81
2023/07/02 06:50:37;;;;;;;15.10;7.00;;;;;;;20.26;83.13;99429.55;106631;1257;98803;-82
2023/07/02 06:53:22;;;;;;;10.00;6.30;;;;;;;20.20;83.61;99431.06;106642;1259;98508;-84
2023/07/02 06:56:11;;;;;;;8.10;6.20;;;;;;;20.07;83.96;99429.52;106824;1257;102608;-84
2023/07/02 06:58:57;;;;;;;11.20;6.50;;;;;;;19.96;84.66;99427.76;106342;1258;99941;-84
2023/07/02 07:01:42;;;;;;;11.40;6.30;;;;;;;19.94;85.65;99428.58;106607;1262;97780;-89
2023/07/02 07:04:28;;;;;;;12.50;6.50;;;;;;;19.84;85.99;99430.02;106922;1254;98015;-89
2023/07/02 07:07:15;;;;;;;9.20;6.20;;;;;;;19.75;86.75;99429.42;106679;1254;97957;-87
2023/07/02 07:10:01;;;;;;;9.80;5.40;;;;;;;19.70;87.49;99427.27;106605;1261;103073;-83
2023/07/02 07:12:46;;;;;;;7.60;5.70;;;;;;;19.69;88.19;99429.83;106380;1254;100372;-84
2023/07/02 07:15:34;;;;;;;9.20;6.30;;;;;;;19.74;89.22;99432.09;106248;1258;99015;-84
2023/07/02 07:18:20;;;;;;;8.70;5.10;;;;;;;19.79;89.42;99433.93;106448;1259;98065;-86
2023/07/02 07:21:05;;;;;;;7.70;5.70;;;;;;;19.80;89.51;99434.30;106654;1259;98472;-82
2023/07/02 07:23:51;;;;;;;5.80;5.00;;;;;;;19.77;89.82;99430.09;106863;1259;101361;-82
2023/07/02 07:26:37;;;;;;;6.60;5.80;;;;;;;19.74;89.84;99432.27;106785;1258;99138;-81
2023/07/02 07:29:22;;;;;;;7.40;4.70;;;;;;;19.77;90.46;99433.35;106923;1259;99206;-81
2023/07/02 07:32:08;;;;;;;7.40;5.20;;;;;;;19.79;90.40;99440.02;106963;1254;98011;-81
2023/07/02 07:34:53;;;;;;;8.70;5.50;;;;;;;19.80;90.63;99436.92;106377;1259;98478;-84
2023/07/02 07:37:39;;;;;;;8.00;5.30;;;;;;;19.86;91.32;99433.09;106531;1254;102376;-83
2023/07/02 07:40:24;;;;;;;7.80;5.10;;;;;;;19.92;91.20;99424.45;106365;1254;99076;-83
2023/07/02 07:43:10;;;;;;;8.40;4.70;;;;;;;20.01;91.33;99427.41;106342;1254;98078;-83
2023/07/02 07:45:56;;;;;;;7.20;4.80;;;;;;;20.11;91.57;99432.02;106253;1260;98047;-81
2023/07/02 07:48:41;;;;;;;8.20;5.10;;;;;;;20.20;91.29;99437.66;106823;1254;97934;-81
2023/07/02 07:51:27;;;;;;;7.40;5.10;;;;;;;20.29;91.07;99442.90;106218;1254;101352;-85
2023/07/02 07:54:13;;;;;;;10.40;5.70;;;;;;;20.34;90.84;99441.46;106682;1254;100291;-89
2023/07/02 07:56:59;;;;;;;8.40;6.40;;;;;;;20.40;91.22;99441.23;106634;1254;99231;-84
2023/07/02 07:59:45;;;;;;;5.90;5.20;;;;;;;20.47;90.98;99444.09;106286;1262;97899;-86
2023/07/02 08:02:31;;;;;;;7.70;5.60;;;;;;;20.54;91.04;99440.02;106708;1254;98395;-87
2023/07/02 08:05:18;;;;;;;6.00;5.40;;;;;;;20.56;90.34;99444.58;106087;1254;102663;-84
2023/07/02 08:08:04;;;;;;;7.40;5.40;;;;;;;20.53;89.61;99447.05;106936;1259;99168;-85
2023/07/02 08:10:50;;;;;;;6.70;5.30;;;;;;;20.46;89.06;99455.02;106319;1260;98015;-84
2023/07/02 08:13:36;;;;;;;7.50;6.40;;;;;;;20.38;89.08;99455.60;107080;1254;98818;-79
2023/07/02 08:16:21;;;;;;;8.90;6.30;;;;;;;20.38;89.17;99450.37;107063;1258;96920;-80
2023/07/02 08:19:07;;;;;;;8.00;6.30;;;;;;;20.36;89.32;99451.58;106206;1259;109996;-82
2023/07/02 08:21:52;;;;;;;12.60;7.10;;;;;;;20.39;89.49;99451.95;106999;1257;100410;-77
2023/07/02 08:24:38;;;;;;;13.20;5.70;;;;;;;20.42;89.40;99455.03;106609;1254;98556;-81
2023/07/02 08:27:23;;;;;;;7.00;6.20;;;;;;;20.49;89.50;99452.55;106577;1254;97940;-80
2023/07/02 08:30:10;;;;;;;8.00;5.90;;;;;;;20.58;89.65;99453.50;106365;1260;97983;-82
2023/07/02 08:32:55;;;;;;;8.20;6.70;;;;;;;20.72;89.83;99460.39;106325;1254;101342;-78
2023/07/02 08:35:40;;;;;;;7.10;5.50;;;;;;;20.83;89.09;99460.00;105933;1257;99545;-79
2023/07/02 08:38:26;;;;;;;8.00;6.20;;;;;;;20.84;88.57;99461.08;106136;1254;98967;-84
2023/07/02 08:41:12;;;;;;;9.00;6.70;;;;;;;20.82;88.11;99462.84;106439;1254;97936;-84
2023/07/02 08:43:59;;;;;;;8.70;5.60;;;;;;;20.80;87.77;99466.45;106334;1254;98472;-82
2023/07/02 08:46:46;;;;;;;7.40;5.50;;;;;;;20.75;87.77;99466.64;106227;1259;101371;-81
2023/07/02 08:49:32;;;;;;;8.50;6.50;;;;;;;20.74;88.04;99468.38;106644;1257;100433;-81
2023/07/02 08:52:18;;;;;;;6.20;4.70;;;;;;;20.77;87.69;99466.73;106424;1260;98519;-83
2023/07/02 08:55:04;;;;;;;5.70;4.90;;;;;;;20.83;87.99;99465.34;106401;1257;97858;-78
2023/07/02 08:57:53;;;;;;;6.90;4.10;;;;;;;20.95;88.18;99466.09;106747;1254;98422;-81
2023/07/02 09:00:38;;;;;;;6.10;3.90;;;;;;;21.07;87.63;99464.02;106824;1257;101337;-84
2023/07/02 09:03:25;;;;;;;9.20;3.60;;;;;;;21.21;87.82;99466.77;106221;1258;99069;-83
2023/07/02 09:06:12;;;;;;;5.20;3.60;;;;;;;21.34;87.67;99470.30;106605;1254;97914;-83
2023/07/02 09:09:05;;;;;;;4.80;3.80;;;;;;;21.46;86.34;99470.15;106609;1254;97755;-83
2023/07/02 09:11:51;;;;;;;7.10;3.50;;;;;;;21.54;86.30;99470.92;106534;1257;98584;-82
2023/07/02 09:14:36;;;;;;;4.10;3.70;;;;;;;21.64;86.07;99481.20;106215;1259;101972;-84
2023/07/02 09:17:26;;;;;;;3.70;3.30;;;;;;;21.71;85.37;99473.81;106247;1258;100158;-83
2023/07/02 09:20:12;;;;;;;5.00;3.30;;;;;;;21.75;84.43;99471.88;106786;1258;98053;-84
2023/07/02 09:22:58;;;;;;;3.50;2.70;;;;;;;21.76;83.67;99477.10;106210;1259;97961;-84
2023/07/02 09:25:44;;;;;;;2.90;2.20;;;;;;;21.73;81.83;99475.98;106478;1259;98388;-82
2023/07/02 09:28:30;;;;;;;3.00;2.20;;;;;;;21.70;81.39;99483.70;106203;1254;102617;-84
2023/07/02 09:31:16;;;;;;;3.50;1.90;;;;;;;21.65;80.85;99489.40;106297;1259;99865;-83
2023/07/02 09:34:02;;;;;;;3.50;2.10;;;;;;;21.59;80.23;99487.81;106177;1260;98942;-85
2023/07/02 09:36:48;;;;;;;4.60;1.70;;;;;;;21.61;80.68;99479.96;106399;1262;98038;-84
2023/07/02 09:39:36;;;;;;;5.90;1.50;;;;;;;21.73;80.44;99477.02;106577;1258;97889;-78
2023/07/02 09:42:22;;;;;;;4.60;2.30;;;;;;;21.87;79.41;99477.29;105967;1260;101321;-78
2023/07/02 09:45:10;;;;;;;3.40;1.70;;;;;;;22.03;79.29;99477.58;106237;1260;99132;-80
2023/07/02 09:47:57;;;;;;;4.10;2.20;;;;;;;22.16;77.91;99473.17;106614;1259;98977;-79
2023/07/02 09:50:48;;;;;;;2.50;1.70;;;;;;;22.28;77.41;99470.15;106145;1260;97963;-79
2023/07/02 09:53:34;;;;;;;2.30;2.10;;;;;;;22.44;78.55;99470.77;106581;1260;97695;-77
2023/07/02 09:56:21;;;;;;;2.10;1.90;;;;;;;22.62;77.90;99473.03;105906;1260;101338;-79
2023/07/02 09:59:06;;;;;;;3.70;2.10;;;;;;;22.72;77.82;99470.66;106007;1254;100763;-78
2023/07/02 10:01:52;;;;;;;3.10;2.20;;;;;;;22.72;76.64;99470.67;105780;1254;99876;-79
2023/07/02 10:04:43;;;;;;;4.70;2.90;;;;;;;22.60;75.84;99469.02;105889;1259;97963;-79
2023/07/02 10:07:31;;;;;;;5.10;2.80;;;;;;;22.43;75.44;99463.05;105746;1267;98029;-78
2023/07/02 10:10:30;;;;;;;9.20;6.50;;;;;;;22.29;75.47;99465.93;105709;1258;101406;-77
2023/07/02 10:13:26;;;;;;;5.40;3.10;;;;;;;22.15;76.01;99478.75;107019;1258;99106;-79
2023/07/02 10:16:12;;;;;;;2.90;2.60;;;;;;;21.99;77.04;99478.92;105744;1254;99247;-77
2023/07/02 10:19:11;;;;;;;4.70;2.90;;;;;;;21.87;77.99;99486.77;106037;1259;97957;-80
2023/07/02 10:22:02;;;;;;;10.20;5.60;;;;;;;21.75;79.07;99490.14;106032;1258;98382;-79
2023/07/02 10:25:00;;;;;;;6.60;2.80;;;;;;;21.66;79.72;99487.05;105984;1260;101215;-79
2023/07/02 10:27:45;;;;;;;5.90;1.80;;;;;;;21.55;80.14;99481.91;105945;1263;100385;-78
2023/07/02 10:30:39;;;;;;;3.10;2.00;;;;;;;21.38;80.49;99481.35;105644;1259;98960;-77
2023/07/02 10:33:24;;;;;;;4.20;3.70;;;;;;;21.33;81.76;99478.27;105679;1260;97947;-78
2023/07/02 10:36:19;;;;;;;4.20;3.00;;;;;;;21.36;82.70;99476.84;105753;1260;99125;-78
2023/07/02 10:39:05;;;;;;;3.60;3.30;;;;;;;21.42;83.07;99480.98;105698;1257;101526;-77
2023/07/02 10:41:50;;;;;;;4.40;3.30;;;;;;;21.41;82.99;99478.05;105749;1259;99053;-78
2023/07/02 10:44:52;;;;;;;2.90;2.60;;;;;;;21.45;83.69;99476.23;105866;1254;97929;-79
2023/07/02 10:47:41;;;;;;;3.10;2.60;;;;;;;21.57;84.14;99480.16;105941;1259;97935;-79
2023/07/02 10:50:27;;;;;;;8.90;5.40;;;;;;;21.65;84.44;99479.48;106730;1254;99659;-80
2023/07/02 10:53:17;;;;;;;4.10;3.60;;;;;;;21.66;84.03;99484.55;107636;1260;101760;-81
2023/07/02 10:56:03;;;;;;;5.20;3.50;;;;;;;21.59;82.76;99488.41;107366;1254;99744;-80
2023/07/02 10:58:51;;;;;;;3.80;2.80;;;;;;;21.44;81.58;99489.85;107299;1260;116051;-80
2023/07/02 11:01:37;;;;;;;4.60;2.50;;;;;;;21.33;81.26;99485.73;107408;1259;97932;-80
2023/07/02 11:04:23;;;;;;;4.50;2.40;;;;;;;21.25;81.82;99486.02;107093;1258;97956;-80
2023/07/02 11:07:11;;;;;;;3.90;2.10;;;;;;;21.24;82.80;99486.84;107211;1254;101460;-80
2023/07/02 11:09:56;;;;;;;2.70;2.40;;;;;;;21.29;83.74;99490.94;107198;1254;99123;-80
2023/07/02 11:12:42;;;;;;;3.60;2.60;;;;;;;21.45;84.37;99490.88;107077;1257;98288;-80
2023/07/02 11:15:35;;;;;;;4.20;2.80;;;;;;;21.61;84.91;99493.47;107041;1254;97801;-80
2023/07/02 11:18:21;;;;;;;5.40;2.70;;;;;;;21.72;85.28;99488.59;107045;1258;97874;-80
2023/07/02 11:21:10;;;;;;;3.00;2.60;;;;;;;21.82;84.32;99484.70;107151;1255;101385;-80
2023/07/02 11:24:10;;;;;;;2.90;2.70;;;;;;;21.89;83.88;99485.84;107125;1258;99085;-80
2023/07/02 11:26:56;;;;;;;3.30;2.10;;;;;;;21.92;83.27;99479.33;107016;1258;98956;-80
2023/07/02 11:29:42;;;;;;;3.70;2.50;;;;;;;21.98;83.25;99476.59;107013;1260;97982;-80
2023/07/02 11:32:27;;;;;;;4.20;2.60;;;;;;;22.05;83.22;99477.88;107179;1254;98404;-80
2023/07/02 11:35:13;;;;;;;3.00;2.20;;;;;;;22.09;83.00;99481.17;107217;1254;101456;-80
2023/07/02 11:37:58;;;;;;;4.40;2.70;;;;;;;22.13;83.17;99480.59;107160;1254;99097;-80
2023/07/02 11:40:46;;;;;;;3.50;2.60;;;;;;;22.23;83.03;99483.36;107202;1254;98965;-80
2023/07/02 11:43:32;;;;;;;4.60;3.50;;;;;;;22.37;82.62;99485.23;107137;1254;97939;-80
2023/07/02 11:46:18;;;;;;;3.00;2.80;;;;;;;22.48;82.53;99481.31;107177;1267;98024;-79
2023/07/02 11:49:04;;;;;;;5.80;3.60;;;;;;;22.65;81.27;99473.42;107200;1256;102144;-80
2023/07/02 11:51:50;;;;;;;4.60;2.90;;;;;;;22.85;81.12;99477.11;107188;1257;99099;-80
2023/07/02 11:54:35;;;;;;;3.00;2.40;;;;;;;22.98;80.69;99478.83;107093;1257;97836;-80
2023/07/02 11:57:22;;;;;;;2.70;1.80;;;;;;;23.06;78.81;99477.95;106928;1254;96285;-78
2023/07/02 12:00:08;;;;;;;6.40;2.10;;;;;;;23.12;76.07;99478.96;106357;1257;97921;-78
2023/07/02 12:02:54;;;;;;;2.50;1.60;;;;;;;23.17;74.21;99479.75;106519;1258;102068;-80
2023/07/02 12:05:39;;;;;;;3.80;1.40;;;;;;;23.27;72.51;99478.62;107120;1254;100296;-80
2023/07/02 12:08:25;;;;;;;2.90;1.50;;;;;;;23.43;70.10;99481.39;107161;1254;97768;-80
2023/07/02 12:11:11;;;;;;;3.70;1.50;;;;;;;23.57;68.59;99484.07;107007;1259;97829;-80
2023/07/02 12:13:56;;;;;;;4.90;1.90;;;;;;;23.66;66.75;99492.60;107212;1257;97134;-80
2023/07/02 12:16:42;;;;;;;2.90;1.50;;;;;;;23.73;65.19;99491.39;107267;1260;101508;-80
2023/07/02 12:19:27;;;;;;;6.80;1.60;;;;;;;23.77;61.15;99496.46;107277;1256;99074;-81
2023/07/02 12:22:16;;;;;;;3.60;1.10;;;;;;;23.66;59.49;99494.19;107186;1254;97991;-80
2023/07/02 12:25:01;;;;;;;5.50;1.80;;;;;;;23.68;59.15;99498.25;107207;1257;97637;-81
2023/07/02 12:27:47;;;;;;;8.70;1.60;;;;;;;23.71;58.08;99494.98;107215;1254;98472;-81
2023/07/02 12:30:34;;;;;;;5.30;1.60;;;;;;;23.78;56.54;99486.23;107482;1257;102015;-79
2023/07/02 12:33:19;;;;;;;6.30;1.20;;;;;;;23.82;56.32;99485.85;107197;1254;99067;-79
2023/07/02 12:36:04;;;;;;;5.10;1.70;;;;;;;23.88;56.38;99492.89;106331;1254;98027;-79
2023/07/02 12:38:50;;;;;;;3.60;1.20;;;;;;;24.02;55.83;99490.86;106498;1261;98158;-80
2023/07/02 12:41:35;;;;;;;6.90;2.10;;;;;;;24.19;55.55;99487.65;106589;1258;97899;-79